Time;durP1;ratioP1;P1;durP2;ratioP2;P2;SDS_P1;SDS_P2;PMS_P1;PMS_P2;Temp;Humidity;BMP_temperature;BMP_pressure;BME280_temperature;BME280_humidity;BME280_pressure;Samples;Min_cycle;Max_cycle;Signal;HPM_P1;HPM_P2
2022/09/25 00:00:27;;;;;;;6.57;0.68;;;;;;;8.40;100.00;101345.81;5029173;28;20067;-51
2022/09/25 00:02:52;;;;;;;4.00;0.22;;;;;;;8.40;100.00;101356.38;5034038;28;20091;-51
2022/09/25 00:05:17;;;;;;;1.63;0.30;;;;;;;8.34;100.00;101346.41;5023863;28;20060;-50
2022/09/25 00:07:43;;;;;;;5.60;0.20;;;;;;;8.32;100.00;101347.56;5035076;28;20075;-50
2022/09/25 00:10:08;;;;;;;5.57;0.13;;;;;;;8.36;100.00;101356.81;5026844;28;20060;-51
2022/09/25 00:12:34;;;;;;;2.75;0.20;;;;;;;8.29;100.00;101364.53;5035967;28;20029;-53
2022/09/25 00:15:00;;;;;;;0.40;0.08;;;;;;;8.27;100.00;101356.75;5033491;28;20032;-55
2022/09/25 00:17:26;;;;;;;5.82;0.88;;;;;;;8.33;100.00;101365.88;5032024;28;20485;-49
2022/09/25 00:19:51;;;;;;;1.95;0.10;;;;;;;8.41;100.00;101363.31;5029793;28;20428;-49
2022/09/25 00:22:17;;;;;;;4.63;0.50;;;;;;;8.42;100.00;101375.56;5021570;28;20033;-52
2022/09/25 00:24:43;;;;;;;4.07;0.52;;;;;;;8.34;100.00;101367.56;5038736;28;20041;-55
2022/09/25 00:27:09;;;;;;;4.85;2.17;;;;;;;8.27;100.00;101369.16;5033953;28;20017;-53
2022/09/25 00:29:36;;;;;;;3.88;0.85;;;;;;;8.24;100.00;101377.38;5025059;28;20096;-55
2022/09/25 00:32:03;;;;;;;3.38;0.93;;;;;;;8.20;100.00;101379.50;5032506;28;20033;-51
2022/09/25 00:34:29;;;;;;;3.60;0.22;;;;;;;8.13;100.00;101385.53;5027262;28;20068;-52
2022/09/25 00:36:54;;;;;;;2.05;0.52;;;;;;;8.09;100.00;101377.09;5022228;28;20068;-53
2022/09/25 00:39:20;;;;;;;5.38;0.80;;;;;;;8.05;100.00;101373.94;5027971;28;20022;-55
2022/09/25 00:41:46;;;;;;;0.20;0.10;;;;;;;8.03;100.00;101389.13;5012122;28;20148;-55
2022/09/25 00:44:45;;;;;;;2.63;1.52;;;;;;;7.92;100.00;101378.75;5025362;28;20034;-52
2022/09/25 00:47:14;;;;;;;1.88;0.52;;;;;;;7.79;100.00;101379.13;5025431;28;20394;-55
2022/09/25 00:49:40;;;;;;;4.53;0.47;;;;;;;7.73;100.00;101390.31;5020765;28;20385;-53
2022/09/25 00:52:11;;;;;;;2.17;0.20;;;;;;;7.69;100.00;101386.28;5027604;28;20120;-53
2022/09/25 00:54:42;;;;;;;3.35;0.50;;;;;;;7.59;100.00;101390.81;5028873;28;20111;-54
2022/09/25 00:57:13;;;;;;;9.55;0.95;;;;;;;7.56;100.00;101385.84;5023646;28;20036;-54
2022/09/25 00:59:42;;;;;;;4.35;0.30;;;;;;;7.54;100.00;101391.28;5030323;28;20021;-55
2022/09/25 01:02:13;;;;;;;2.95;0.20;;;;;;;7.52;100.00;101387.13;5021246;28;20029;-53
2022/09/25 01:04:40;;;;;;;1.30;0.10;;;;;;;7.63;100.00;101392.19;5028959;28;20030;-52
2022/09/25 01:07:08;;;;;;;1.75;0.38;;;;;;;7.59;100.00;101374.97;5024825;28;20056;-51
2022/09/25 01:09:34;;;;;;;2.58;1.35;;;;;;;7.46;100.00;101388.56;5018103;28;20034;-52
2022/09/25 01:12:00;;;;;;;1.20;0.20;;;;;;;7.33;100.00;101382.78;5017794;28;20041;-51
2022/09/25 01:14:26;;;;;;;1.83;0.32;;;;;;;7.22;100.00;101379.38;5026289;28;20049;-50
2022/09/25 01:16:58;;;;;;;0.65;0.28;;;;;;;7.21;100.00;101377.72;5025058;28;20028;-49
2022/09/25 01:19:43;;;;;;;2.08;1.38;;;;;;;7.14;100.00;101381.09;5020380;28;20045;-50
2022/09/25 01:22:26;;;;;;;1.77;0.15;;;;;;;7.13;100.00;101382.09;5019168;28;20038;-53
2022/09/25 01:25:22;;;;;;;1.98;1.17;;;;;;;7.03;100.00;101371.56;5017145;28;20061;-53
2022/09/25 01:28:01;;;;;;;0.85;0.43;;;;;;;6.88;100.00;101386.19;5026372;28;20394;-50
2022/09/25 01:30:29;;;;;;;1.65;0.68;;;;;;;6.75;100.00;101382.06;5030421;28;20037;-49
2022/09/25 01:33:27;;;;;;;0.70;0.30;;;;;;;6.72;100.00;101386.81;5025096;28;20021;-51
2022/09/25 01:35:55;;;;;;;0.38;0.10;;;;;;;6.63;100.00;101388.50;5023882;28;20156;-52
2022/09/25 01:38:44;;;;;;;5.28;0.70;;;;;;;6.55;100.00;101377.84;5016253;28;20017;-51
2022/09/25 01:41:28;;;;;;;0.98;0.20;;;;;;;6.47;100.00;101383.00;5020558;28;20032;-51
2022/09/25 01:44:01;;;;;;;1.17;0.63;;;;;;;6.41;100.00;101378.31;5011633;28;20053;-50
2022/09/25 01:46:29;;;;;;;3.00;0.52;;;;;;;6.37;100.00;101376.91;5016502;28;20037;-53
2022/09/25 01:48:59;;;;;;;1.45;0.38;;;;;;;6.34;100.00;101384.13;5030043;28;20068;-55
2022/09/25 01:51:40;;;;;;;0.73;0.65;;;;;;;6.29;100.00;101381.06;5027199;28;20034;-54
2022/09/25 01:54:14;;;;;;;2.97;0.45;;;;;;;6.21;100.00;101378.31;5029420;28;20095;-54
2022/09/25 01:56:56;;;;;;;1.20;0.28;;;;;;;6.13;100.00;101386.09;5033730;28;20038;-52
2022/09/25 01:59:47;;;;;;;0.13;0.10;;;;;;;6.00;100.00;101385.53;5028339;28;20029;-50
2022/09/25 02:02:18;;;;;;;1.25;0.90;;;;;;;5.95;100.00;101383.31;5025750;28;20025;-53
2022/09/25 02:04:59;;;;;;;0.60;0.20;;;;;;;5.89;100.00;101381.22;5026554;28;20048;-49
2022/09/25 02:07:30;;;;;;;2.97;1.25;;;;;;;5.87;100.00;101383.16;5029236;28;20509;-55
2022/09/25 02:10:00;;;;;;;;;;;;;;;5.82;100.00;101378.31;5023142;28;20111;-54
2022/09/25 02:12:42;;;;;;;2.92;0.20;;;;;;;5.76;100.00;101376.22;5021943;28;20290;-52
2022/09/25 02:15:13;;;;;;;1.95;0.00;;;;;;;5.71;100.00;101378.44;5020462;28;20040;-50
2022/09/25 02:20:31;;;;;;;1.75;0.38;;;;;;;5.65;100.00;101384.22;5027000;28;20462;-51
2022/09/25 02:23:20;;;;;;;4.07;0.57;;;;;;;5.66;100.00;101376.22;5022718;28;20025;-55
2022/09/25 02:25:58;;;;;;;0.10;0.10;;;;;;;5.61;100.00;101372.34;5025955;28;20045;-53
2022/09/25 02:28:24;;;;;;;0.25;0.13;;;;;;;5.52;100.00;101378.41;5028661;28;20371;-51
2022/09/25 02:30:53;;;;;;;1.40;0.05;;;;;;;5.41;100.00;101372.28;5023701;28;20063;-53
2022/09/25 02:33:19;;;;;;;0.17;0.15;;;;;;;5.34;100.00;101370.34;5021263;28;20434;-51
2022/09/25 02:35:44;;;;;;;0.00;0.00;;;;;;;5.28;100.00;101374.34;5025282;28;20386;-53
2022/09/25 02:38:10;;;;;;;3.60;0.57;;;;;;;5.25;100.00;101374.63;5021573;28;20026;-53
2022/09/25 02:40:46;;;;;;;0.82;0.68;;;;;;;5.22;100.00;101378.34;5029304;28;20037;-51
2022/09/25 02:43:30;;;;;;;2.92;0.30;;;;;;;5.21;100.00;101381.09;5034687;28;20056;-54
2022/09/25 02:46:27;;;;;;;2.83;0.15;;;;;;;5.27;100.00;101379.72;5027470;28;20895;-52
2022/09/25 02:49:01;;;;;;;0.40;0.10;;;;;;;5.22;100.00;101380.97;5029460;28;20042;-53
2022/09/25 02:51:39;;;;;;;2.13;0.20;;;;;;;5.20;100.00;101390.78;5023593;28;20025;-53
2022/09/25 02:54:19;;;;;;;2.65;0.30;;;;;;;5.22;100.00;101401.19;5027287;28;20044;-55
2022/09/25 02:57:03;;;;;;;0.77;0.40;;;;;;;5.25;100.00;101395.66;5023392;28;20033;-52
2022/09/25 02:59:40;;;;;;;0.95;0.52;;;;;;;5.33;100.00;101387.91;5024843;28;20045;-51
2022/09/25 03:02:09;;;;;;;2.72;0.50;;;;;;;5.38;100.00;101390.16;5032431;28;20077;-51
2022/09/25 03:04:37;;;;;;;1.38;1.20;;;;;;;5.37;100.00;101391.97;5023927;28;20034;-50
2022/09/25 03:07:04;;;;;;;0.70;0.13;;;;;;;5.40;100.00;101394.31;5028708;28;20037;-54
2022/09/25 03:09:34;;;;;;;0.20;0.15;;;;;;;5.40;100.00;101391.69;5029488;28;20558;-52
2022/09/25 03:12:03;;;;;;;1.50;0.30;;;;;;;5.49;100.00;101387.41;5026915;28;20029;-52
2022/09/25 03:14:28;;;;;;;2.22;0.25;;;;;;;5.47;100.00;101390.19;5030660;28;20056;-51
2022/09/25 03:16:56;;;;;;;2.13;0.57;;;;;;;5.42;100.00;101402.91;5026279;28;20100;-49
2022/09/25 03:19:27;;;;;;;2.05;1.20;;;;;;;5.40;100.00;101396.94;5032492;28;20117;-49
2022/09/25 03:21:53;;;;;;;0.40;0.40;;;;;;;5.42;100.00;101397.66;5024346;28;20031;-50
2022/09/25 03:24:18;;;;;;;2.08;0.73;;;;;;;5.32;100.00;101401.19;5035599;28;20383;-49
2022/09/25 03:26:44;;;;;;;0.60;0.50;;;;;;;5.24;100.00;101396.63;5016904;28;20052;-49
2022/09/25 03:29:11;;;;;;;3.50;0.40;;;;;;;5.19;100.00;101398.84;5025969;28;20025;-49
2022/09/25 03:31:38;;;;;;;3.10;1.60;;;;;;;5.30;100.00;101398.72;5020449;28;20032;-51
2022/09/25 03:34:04;;;;;;;2.15;0.52;;;;;;;5.29;100.00;101406.72;5022909;28;20163;-49
2022/09/25 03:36:30;;;;;;;0.88;0.40;;;;;;;5.24;100.00;101410.59;5016631;28;20029;-49
2022/09/25 03:38:57;;;;;;;0.43;0.38;;;;;;;5.22;100.00;101401.19;5025467;28;20108;-52
2022/09/25 03:41:26;;;;;;;6.00;1.75;;;;;;;5.30;100.00;101405.78;5034258;28;20150;-50
2022/09/25 03:43:52;;;;;;;4.00;0.77;;;;;;;5.36;100.00;101408.69;5023540;28;20034;-54
2022/09/25 03:46:20;;;;;;;2.38;0.35;;;;;;;5.30;100.00;101409.25;5025234;28;20030;-49
2022/09/25 03:48:46;;;;;;;4.50;0.25;;;;;;;5.20;100.00;101401.31;5026880;28;20083;-50
2022/09/25 03:51:12;;;;;;;0.65;0.43;;;;;;;5.22;100.00;101406.44;5021629;28;20021;-52
2022/09/25 03:53:37;;;;;;;1.10;0.25;;;;;;;5.19;100.00;101396.19;5021871;28;20028;-52
2022/09/25 03:56:06;;;;;;;1.98;0.50;;;;;;;5.08;100.00;101398.91;5028975;28;20029;-52
2022/09/25 03:58:32;;;;;;;0.38;0.38;;;;;;;5.00;100.00;101396.94;5020957;28;20095;-51
2022/09/25 04:00:57;;;;;;;0.63;0.52;;;;;;;4.91;100.00;101398.56;5026737;28;20052;-51
2022/09/25 04:03:28;;;;;;;0.90;0.50;;;;;;;4.81;100.00;101390.63;5031698;28;20471;-51
2022/09/25 04:05:58;;;;;;;0.68;0.50;;;;;;;4.84;100.00;101391.34;5018958;28;20044;-52
2022/09/25 04:08:25;;;;;;;1.73;0.22;;;;;;;4.81;100.00;101390.63;5025491;28;20033;-54
2022/09/25 04:10:55;;;;;;;2.17;1.02;;;;;;;4.77;100.00;101391.03;5028395;28;20112;-54
2022/09/25 04:13:22;;;;;;;5.55;0.30;;;;;;;4.73;100.00;101390.47;5019234;28;20053;-50
2022/09/25 04:15:48;;;;;;;1.35;0.22;;;;;;;4.67;100.00;101379.63;5027856;28;20363;-51
2022/09/25 04:18:13;;;;;;;1.17;0.40;;;;;;;4.65;100.00;101389.47;5026318;28;20025;-49
2022/09/25 04:20:39;;;;;;;0.82;0.20;;;;;;;4.57;100.00;101388.31;5028693;28;20039;-51
2022/09/25 04:23:04;;;;;;;1.05;0.55;;;;;;;4.51;100.00;101382.72;5019491;28;20136;-49
2022/09/25 04:25:30;;;;;;;1.95;0.20;;;;;;;4.40;100.00;101381.00;5024359;28;20059;-52
2022/09/25 04:27:56;;;;;;;0.40;0.20;;;;;;;4.34;100.00;101379.75;5028157;28;20083;-52
2022/09/25 04:30:22;;;;;;;2.88;0.88;;;;;;;4.28;100.00;101374.16;5026927;28;20037;-52
2022/09/25 04:35:31;;;;;;;0.93;0.13;;;;;;;4.20;100.00;101379.22;5016753;28;20125;-49
2022/09/25 04:37:57;;;;;;;0.10;0.10;;;;;;;4.14;100.00;101381.38;5015324;28;20381;-50
2022/09/25 04:40:22;;;;;;;0.20;0.13;;;;;;;4.08;100.00;101374.03;5024474;28;20032;-50
2022/09/25 04:42:48;;;;;;;1.35;0.55;;;;;;;4.04;100.00;101370.00;5023158;28;20030;-51
2022/09/25 04:45:14;;;;;;;2.92;0.68;;;;;;;4.02;100.00;101374.53;5030458;28;20035;-49
2022/09/25 04:47:40;;;;;;;1.38;0.30;;;;;;;3.99;100.00;101377.41;5016405;28;20609;-49
2022/09/25 04:50:05;;;;;;;0.52;0.20;;;;;;;3.96;100.00;101375.03;5020064;28;20042;-50
2022/09/25 04:52:31;;;;;;;0.20;0.20;;;;;;;3.93;100.00;101376.13;5019537;28;20029;-51
2022/09/25 04:54:56;;;;;;;4.38;0.57;;;;;;;3.90;100.00;101378.19;5027413;28;20536;-51
2022/09/25 04:57:22;;;;;;;5.78;0.30;;;;;;;3.88;100.00;101380.09;5022893;28;20117;-51
2022/09/25 04:59:50;;;;;;;0.88;0.30;;;;;;;3.85;100.00;101373.31;5018924;28;20045;-50
2022/09/25 05:02:16;;;;;;;1.75;0.40;;;;;;;3.79;100.00;101375.56;5015145;28;20434;-52
2022/09/25 05:04:41;;;;;;;1.38;0.45;;;;;;;3.76;100.00;101381.09;5029319;28;20076;-49
2022/09/25 05:07:06;;;;;;;1.40;0.50;;;;;;;3.74;100.00;101385.63;5025575;28;20459;-54
2022/09/25 05:09:32;;;;;;;1.88;0.30;;;;;;;3.70;100.00;101377.16;5021892;28;20164;-54
2022/09/25 05:11:57;;;;;;;0.82;0.17;;;;;;;3.65;100.00;101374.09;5023314;28;20128;-50
2022/09/25 05:14:23;;;;;;;0.30;0.10;;;;;;;3.61;100.00;101373.47;5021403;28;20156;-49
2022/09/25 05:16:49;;;;;;;1.45;0.32;;;;;;;3.59;100.00;101374.56;5019399;28;20473;-50
2022/09/25 05:19:15;;;;;;;0.30;0.30;;;;;;;3.54;100.00;101374.09;5022223;28;20112;-49
2022/09/25 05:21:41;;;;;;;0.70;0.70;;;;;;;3.50;100.00;101373.53;5011360;28;20037;-49
2022/09/25 05:24:08;;;;;;;1.17;0.30;;;;;;;3.48;100.00;101375.44;5027485;28;20435;-49
2022/09/25 05:26:34;;;;;;;0.73;0.00;;;;;;;3.44;100.00;101369.63;5018463;28;20042;-50
2022/09/25 05:29:00;;;;;;;0.10;0.10;;;;;;;3.40;100.00;101367.34;5026941;28;20173;-48
2022/09/25 05:31:26;;;;;;;3.10;0.10;;;;;;;3.36;100.00;101379.88;5021596;28;20029;-51
2022/09/25 05:33:52;;;;;;;0.77;0.68;;;;;;;3.34;100.00;101370.47;5025967;28;20025;-51
2022/09/25 05:36:18;;;;;;;1.55;0.20;;;;;;;3.27;100.00;101378.81;5030034;28;20040;-50
2022/09/25 05:38:44;;;;;;;0.15;0.15;;;;;;;3.24;100.00;101380.84;5012390;28;20491;-51
2022/09/25 05:41:09;;;;;;;1.25;1.15;;;;;;;3.23;100.00;101382.63;5022547;28;20060;-50
2022/09/25 05:43:40;;;;;;;1.13;0.00;;;;;;;3.21;100.00;101381.09;5024315;28;20402;-54
2022/09/25 05:46:05;;;;;;;0.10;0.10;;;;;;;3.17;100.00;101375.25;5022830;28;20075;-50
2022/09/25 05:48:31;;;;;;;3.40;0.85;;;;;;;3.16;100.00;101375.38;5025656;28;20278;-51
2022/09/25 05:50:57;;;;;;;0.30;0.30;;;;;;;3.13;100.00;101375.63;5022657;28;20029;-49
2022/09/25 05:53:23;;;;;;;0.32;0.13;;;;;;;3.10;100.00;101375.84;5026771;28;20033;-51
2022/09/25 05:55:50;;;;;;;0.10;0.10;;;;;;;3.08;100.00;101378.59;5025930;28;20040;-51
2022/09/25 05:58:15;;;;;;;1.40;0.75;;;;;;;3.04;100.00;101383.22;5023831;28;20041;-54
2022/09/25 06:00:41;;;;;;;0.40;0.20;;;;;;;3.03;100.00;101380.75;5028605;28;20060;-52
2022/09/25 06:03:07;;;;;;;0.60;0.15;;;;;;;3.02;100.00;101379.06;5025781;28;20026;-54
2022/09/25 06:05:32;;;;;;;3.47;0.25;;;;;;;2.98;100.00;101388.97;5019197;28;20470;-52
2022/09/25 06:07:57;;;;;;;2.15;0.28;;;;;;;2.99;100.00;101384.56;5028379;28;20030;-52
2022/09/25 06:10:27;;;;;;;1.98;0.85;;;;;;;2.98;100.00;101377.66;5030521;28;20510;-49
2022/09/25 06:12:59;;;;;;;0.50;0.38;;;;;;;2.96;100.00;101379.56;5027153;28;20077;-49
2022/09/25 06:15:36;;;;;;;0.20;0.20;;;;;;;2.94;100.00;101377.03;5024293;28;20095;-51
2022/09/25 06:18:01;;;;;;;0.82;0.43;;;;;;;2.97;100.00;101382.06;5026541;28;20033;-52
2022/09/25 06:20:26;;;;;;;1.95;0.55;;;;;;;2.97;100.00;101383.84;5029198;28;20029;-49
2022/09/25 06:22:56;;;;;;;2.05;0.50;;;;;;;2.98;100.00;101383.72;5017056;28;20079;-51
2022/09/25 06:25:24;;;;;;;0.38;0.30;;;;;;;3.02;100.00;101387.78;5024761;28;20095;-49
2022/09/25 06:27:53;;;;;;;2.50;0.40;;;;;;;3.03;100.00;101392.06;5024546;28;20409;-52
2022/09/25 06:30:20;;;;;;;1.55;0.35;;;;;;;3.03;100.00;101392.06;5026913;28;20030;-52
2022/09/25 06:32:46;;;;;;;1.27;1.08;;;;;;;3.07;100.00;101397.88;5027174;28;20044;-51
2022/09/25 06:35:12;;;;;;;0.38;0.32;;;;;;;3.13;100.00;101399.22;5012251;28;20018;-49
2022/09/25 06:37:37;;;;;;;1.15;0.50;;;;;;;3.16;100.00;101397.19;5025987;28;20037;-50
2022/09/25 06:40:03;;;;;;;2.08;0.60;;;;;;;3.20;100.00;101398.63;5024416;28;20037;-49
2022/09/25 06:42:28;;;;;;;1.92;0.50;;;;;;;3.24;100.00;101400.03;5030568;28;20136;-54
2022/09/25 06:44:53;;;;;;;0.85;0.60;;;;;;;3.32;100.00;101401.22;5025764;28;20037;-50
2022/09/25 06:47:20;;;;;;;0.70;0.52;;;;;;;3.38;100.00;101405.97;5028455;28;20029;-49
2022/09/25 06:49:45;;;;;;;3.47;0.52;;;;;;;3.40;100.00;101401.44;5025528;28;20033;-51
2022/09/25 06:52:11;;;;;;;1.98;1.20;;;;;;;3.50;100.00;101394.50;5029493;28;20087;-49
2022/09/25 06:54:36;;;;;;;2.95;1.23;;;;;;;3.58;100.00;101396.50;5042575;28;20576;-50
2022/09/25 06:57:02;;;;;;;1.02;0.90;;;;;;;3.66;100.00;101397.56;5028392;28;20026;-51
2022/09/25 06:59:27;;;;;;;4.68;1.60;;;;;;;3.81;100.00;101397.28;5028594;28;20115;-49
2022/09/25 07:01:53;;;;;;;1.98;1.85;;;;;;;4.07;100.00;101403.03;5027616;28;20037;-53
2022/09/25 07:04:18;;;;;;;3.95;1.40;;;;;;;4.25;100.00;101401.50;5043308;28;20242;-51
2022/09/25 07:06:44;;;;;;;6.65;1.63;;;;;;;4.56;100.00;101399.75;5024935;28;20035;-49
2022/09/25 07:09:10;;;;;;;3.15;2.40;;;;;;;4.82;100.00;101394.91;5021484;28;20085;-54
2022/09/25 07:11:35;;;;;;;5.63;2.72;;;;;;;5.00;100.00;101405.66;5029790;28;20048;-52
2022/09/25 07:14:00;;;;;;;4.70;2.75;;;;;;;5.12;100.00;101393.25;5014940;28;20414;-52
2022/09/25 07:16:28;;;;;;;4.60;2.70;;;;;;;5.23;100.00;101398.41;5027947;28;20033;-49
2022/09/25 07:18:57;;;;;;;3.05;2.78;;;;;;;5.44;100.00;101402.75;5029339;28;20087;-51
2022/09/25 07:21:23;;;;;;;4.25;2.47;;;;;;;5.61;100.00;101396.84;5030878;28;20028;-49
2022/09/25 07:23:50;;;;;;;3.65;2.45;;;;;;;5.78;100.00;101398.00;5025546;28;20049;-52
2022/09/25 07:26:24;;;;;;;9.10;4.07;;;;;;;5.96;100.00;101399.94;5023373;28;20121;-52
2022/09/25 07:28:55;;;;;;;6.25;3.38;;;;;;;6.11;100.00;101411.72;5023301;28;20025;-50
2022/09/25 07:31:26;;;;;;;7.28;3.72;;;;;;;6.24;100.00;101403.53;5035595;28;20053;-53
2022/09/25 07:33:52;;;;;;;6.65;2.78;;;;;;;6.23;100.00;101396.63;5027390;28;20046;-50
2022/09/25 07:36:18;;;;;;;5.60;3.22;;;;;;;6.32;100.00;101399.25;5027197;28;20030;-49
2022/09/25 07:38:47;;;;;;;3.80;3.35;;;;;;;6.40;100.00;101397.69;5020878;28;20479;-51
2022/09/25 07:41:12;;;;;;;9.35;3.78;;;;;;;6.50;100.00;101398.50;5022565;28;20422;-52
2022/09/25 07:43:38;;;;;;;5.15;2.90;;;;;;;6.63;100.00;101403.47;5021474;28;20064;-45
2022/09/25 07:46:05;;;;;;;8.63;3.58;;;;;;;6.81;100.00;101395.66;5020688;28;20057;-51
2022/09/25 07:48:31;;;;;;;9.30;2.75;;;;;;;6.93;100.00;101402.41;5020275;28;20122;-52
2022/09/25 07:51:04;;;;;;;13.57;6.47;;;;;;;7.10;100.00;101400.81;5018881;28;20418;-50
2022/09/25 07:53:30;;;;;;;5.05;2.97;;;;;;;7.27;100.00;101407.13;5015914;28;20100;-49
2022/09/25 07:56:00;;;;;;;4.80;2.80;;;;;;;7.46;100.00;101408.81;5022101;28;20395;-48
2022/09/25 07:58:27;;;;;;;4.45;2.60;;;;;;;7.60;100.00;101414.44;5020608;28;20030;-50
2022/09/25 08:00:53;;;;;;;7.75;3.53;;;;;;;7.76;100.00;101412.94;5019664;28;20379;-49
2022/09/25 08:03:20;;;;;;;8.38;2.83;;;;;;;7.91;100.00;101422.00;5018875;28;20680;-54
2022/09/25 08:05:45;;;;;;;5.60;3.40;;;;;;;8.01;100.00;101420.13;5011888;28;20037;-51
2022/09/25 08:08:11;;;;;;;4.13;2.50;;;;;;;8.17;100.00;101423.88;5014406;28;20033;-52
2022/09/25 08:10:36;;;;;;;7.50;2.83;;;;;;;8.31;100.00;101423.34;5015061;28;20053;-50
2022/09/25 08:13:03;;;;;;;4.38;2.35;;;;;;;8.44;100.00;101428.25;5014491;28;20057;-49
2022/09/25 08:15:28;;;;;;;9.00;3.20;;;;;;;8.57;100.00;101425.22;5017980;28;20048;-51
2022/09/25 08:17:54;;;;;;;4.90;2.90;;;;;;;8.65;100.00;101417.34;5017611;28;20383;-50
2022/09/25 08:20:19;;;;;;;2.67;1.80;;;;;;;8.79;100.00;101419.41;5017996;28;20044;-49
2022/09/25 08:22:45;;;;;;;9.27;1.88;;;;;;;8.91;100.00;101420.81;5015022;28;20038;-50
2022/09/25 08:25:11;;;;;;;6.63;1.95;;;;;;;8.95;100.00;101419.50;5019112;28;20072;-50
2022/09/25 08:27:39;;;;;;;7.22;2.25;;;;;;;9.07;100.00;101414.78;5018372;28;20054;-50
2022/09/25 08:30:07;;;;;;;2.53;1.20;;;;;;;9.31;100.00;101419.31;5010416;28;20156;-50
2022/09/25 08:32:33;;;;;;;9.90;2.15;;;;;;;9.80;100.00;101416.00;5014934;28;20105;-51
2022/09/25 08:35:00;;;;;;;2.83;1.63;;;;;;;10.15;100.00;101411.41;5019996;28;20044;-48
2022/09/25 08:37:25;;;;;;;0.88;0.65;;;;;;;10.20;100.00;101399.31;5020909;28;20040;-53
2022/09/25 08:39:50;;;;;;;5.38;1.65;;;;;;;10.09;100.00;101398.78;5020242;28;20030;-51
2022/09/25 08:42:29;;;;;;;3.03;0.63;;;;;;;10.05;100.00;101382.41;5024575;28;20029;-52
2022/09/25 08:50:29;;;;;;;6.07;1.25;;;;;;;10.23;100.00;101387.53;5018714;28;20659;-50
2022/09/25 08:53:09;;;;;;;2.95;0.82;;;;;;;10.35;100.00;101377.44;5023664;28;20026;-50
2022/09/25 08:58:31;;;;;;;0.95;0.40;;;;;;;10.45;100.00;101383.41;5017791;28;20044;-50
2022/09/25 09:01:02;;;;;;;5.10;0.80;;;;;;;10.55;100.00;101378.75;5018784;28;20037;-56
2022/09/25 09:03:30;;;;;;;4.53;0.70;;;;;;;10.61;100.00;101375.44;5020764;28;20022;-51
2022/09/25 09:06:10;;;;;;;1.20;0.40;;;;;;;10.68;100.00;101364.94;5026015;28;20033;-51
2022/09/25 09:08:39;;;;;;;1.10;0.43;;;;;;;10.83;100.00;101375.69;5018249;28;20033;-57
2022/09/25 09:11:14;;;;;;;0.82;0.60;;;;;;;10.93;100.00;101373.66;5025220;28;20474;-50
2022/09/25 09:13:58;;;;;;;3.97;1.00;;;;;;;11.05;100.00;101363.53;5029946;28;20053;-55
2022/09/25 09:16:24;;;;;;;5.68;0.98;;;;;;;11.00;100.00;101353.41;5025331;28;20449;-55
2022/09/25 09:18:50;;;;;;;3.25;1.60;;;;;;;11.06;100.00;101357.19;5024186;28;20030;-56
2022/09/25 09:21:24;;;;;;;2.53;0.55;;;;;;;11.19;100.00;101354.81;5028198;28;20029;-56
2022/09/25 09:24:18;;;;;;;0.73;0.73;;;;;;;11.25;100.00;101351.44;5025629;28;20030;-56
2022/09/25 09:26:53;;;;;;;0.55;0.55;;;;;;;11.28;100.00;101347.63;5018787;28;20049;-45
2022/09/25 09:29:35;;;;;;;3.92;0.95;;;;;;;11.36;100.00;101339.63;5028544;28;20118;-49
2022/09/25 09:32:20;;;;;;;4.47;0.60;;;;;;;11.57;100.00;101339.81;5012397;28;20033;-51
2022/09/25 09:35:03;;;;;;;1.20;0.35;;;;;;;11.73;100.00;101330.09;5020725;28;20079;-50
2022/09/25 09:37:41;;;;;;;0.65;0.28;;;;;;;12.00;100.00;101326.91;5021372;28;20041;-51
2022/09/25 09:40:51;;;;;;;1.25;0.20;;;;;;;12.21;100.00;101320.91;5025800;28;20482;-56
2022/09/25 09:43:30;;;;;;;2.22;0.57;;;;;;;12.31;100.00;101306.50;5018299;28;20041;-53
2022/09/25 09:46:28;;;;;;;1.88;0.20;;;;;;;12.61;100.00;101302.84;5020364;28;20045;-53
2022/09/25 09:48:53;;;;;;;2.63;1.30;;;;;;;12.85;100.00;101304.38;5027901;28;20033;-52
2022/09/25 09:51:24;;;;;;;2.05;0.13;;;;;;;12.94;100.00;101296.28;5022418;28;20041;-54
2022/09/25 09:53:59;;;;;;;3.47;0.57;;;;;;;13.10;100.00;101304.88;5023799;28;20025;-57
2022/09/25 09:56:34;;;;;;;1.10;0.47;;;;;;;13.21;100.00;101303.56;5025563;28;20490;-54
2022/09/25 09:59:10;;;;;;;1.75;1.00;;;;;;;13.24;100.00;101284.56;5021614;28;20033;-54
2022/09/25 10:01:38;;;;;;;1.13;0.15;;;;;;;13.26;100.00;101285.22;5021309;28;20095;-53
2022/09/25 10:04:06;;;;;;;2.17;0.40;;;;;;;13.50;100.00;101278.69;5019595;28;20021;-51
2022/09/25 10:06:37;;;;;;;0.40;0.10;;;;;;;13.68;100.00;101275.59;5013895;28;20121;-48
2022/09/25 10:09:02;;;;;;;2.35;0.30;;;;;;;13.63;100.00;101274.47;5033423;28;20479;-47
2022/09/25 10:11:31;;;;;;;3.30;0.22;;;;;;;13.73;100.00;101278.50;5026890;28;20041;-46
2022/09/25 10:13:58;;;;;;;1.52;0.38;;;;;;;13.54;100.00;101276.47;5030665;28;20045;-55
2022/09/25 10:16:25;;;;;;;0.20;0.20;;;;;;;13.61;100.00;101287.19;5029372;28;20536;-55
2022/09/25 10:19:03;;;;;;;1.33;0.10;;;;;;;13.36;100.00;101270.75;5027301;28;20030;-47
2022/09/25 10:21:59;;;;;;;0.80;0.10;;;;;;;13.25;100.00;101272.06;5022615;28;20037;-46
2022/09/25 10:24:50;;;;;;;2.70;0.52;;;;;;;13.57;100.00;101276.09;5026448;28;20038;-57
2022/09/25 10:27:23;;;;;;;0.35;0.08;;;;;;;13.91;100.00;101271.84;5017844;28;20059;-57
2022/09/25 10:30:08;;;;;;;3.50;0.40;;;;;;;13.86;100.00;101252.94;5018226;28;20029;-53
2022/09/25 10:32:40;;;;;;;5.60;0.00;;;;;;;13.63;100.00;101256.69;5016840;28;20103;-51
2022/09/25 10:35:14;;;;;;;4.07;0.20;;;;;;;13.50;100.00;101253.88;5029764;28;20049;-54
2022/09/25 10:37:39;;;;;;;0.60;0.00;;;;;;;13.56;100.00;101241.66;5025123;28;20095;-56
2022/09/25 10:40:21;;;;;;;1.02;0.57;;;;;;;13.67;100.00;101249.94;5026682;28;20045;-53
2022/09/25 10:42:46;;;;;;;;;;;;;;;13.87;100.00;101244.75;5030445;28;20026;-56
2022/09/25 10:45:26;;;;;;;0.30;0.00;;;;;;;14.08;100.00;101251.06;5024108;28;20344;-53
2022/09/25 10:50:38;;;;;;;2.08;0.10;;;;;;;13.96;100.00;101238.28;5027727;28;20032;-55
2022/09/25 10:53:06;;;;;;;2.10;0.15;;;;;;;14.14;100.00;101239.59;5027445;28;20030;-54
2022/09/25 10:55:35;;;;;;;0.93;0.00;;;;;;;14.37;100.00;101236.66;5030269;28;20478;-55
2022/09/25 10:58:09;;;;;;;0.15;0.00;;;;;;;14.32;100.00;101229.22;5022167;28;20048;-50
2022/09/25 11:00:57;;;;;;;0.10;0.00;;;;;;;14.19;100.00;101224.66;5031145;28;20044;-56
2022/09/25 11:03:26;;;;;;;1.75;0.00;;;;;;;13.88;100.00;101224.25;5028699;28;20052;-51
2022/09/25 11:05:58;;;;;;;2.58;0.15;;;;;;;13.71;100.00;101223.75;5028144;28;20065;-52
2022/09/25 11:08:28;;;;;;;2.35;0.13;;;;;;;13.85;100.00;101216.66;5026194;28;20041;-50
2022/09/25 11:10:56;;;;;;;3.03;0.10;;;;;;;14.21;100.00;101213.81;5029638;28;20063;-55
2022/09/25 11:13:25;;;;;;;0.30;0.00;;;;;;;14.55;100.00;101202.28;5030348;28;20045;-52
2022/09/25 11:15:53;;;;;;;1.95;0.00;;;;;;;14.92;100.00;101189.47;5028532;28;20052;-57
2022/09/25 11:18:34;;;;;;;2.75;0.00;;;;;;;15.14;100.00;101183.94;5024122;28;20052;-55
2022/09/25 11:21:02;;;;;;;0.10;0.00;;;;;;;15.25;100.00;101194.03;5026082;28;20022;-50
2022/09/25 11:23:36;;;;;;;0.40;0.00;;;;;;;14.81;100.00;101177.50;5020552;28;20061;-58
2022/09/25 11:26:11;;;;;;;1.33;0.00;;;;;;;15.08;100.00;101190.13;5017012;28;20033;-55
2022/09/25 11:28:40;;;;;;;2.00;0.13;;;;;;;15.34;100.00;101174.09;5025759;28;20037;-51
2022/09/25 11:31:44;;;;;;;0.25;0.00;;;;;;;15.37;100.00;101171.00;5023099;28;20494;-53
2022/09/25 11:34:33;;;;;;;0.85;0.15;;;;;;;15.40;100.00;101151.91;5015253;28;20077;-52
2022/09/25 11:37:16;;;;;;;3.53;0.75;;;;;;;15.52;100.00;101151.28;5019792;28;20060;-53
2022/09/25 11:42:40;;;;;;;1.33;0.10;;;;;;;15.34;100.00;101152.72;5015530;28;20103;-54
2022/09/25 11:45:13;;;;;;;3.63;0.32;;;;;;;14.97;100.00;101154.97;5022000;28;20040;-57
2022/09/25 11:47:46;;;;;;;0.93;0.20;;;;;;;14.72;100.00;101149.38;5023418;28;20038;-51
2022/09/25 11:50:17;;;;;;;2.67;0.10;;;;;;;14.45;100.00;101139.63;5022540;28;20029;-55
2022/09/25 11:52:49;;;;;;;0.35;0.10;;;;;;;14.69;100.00;101144.44;5020298;28;20569;-57
2022/09/25 11:55:45;;;;;;;2.17;0.52;;;;;;;15.20;100.00;101133.19;5017269;28;20042;-56
2022/09/25 11:58:13;;;;;;;1.73;0.65;;;;;;;15.66;100.00;101136.84;5030076;28;20553;-53